Time;durP1;ratioP1;P1;durP2;ratioP2;P2;SDS_P1;SDS_P2;PMS_P1;PMS_P2;Temp;Humidity;BMP_temperature;BMP_pressure;BME280_temperature;BME280_humidity;BME280_pressure;Samples;Min_cycle;Max_cycle;Signal;HPM_P1;HPM_P2
2021/05/05 00:01:53;;;;;;;5.30;2.53;;;;;;;5.58;72.12;98586.47;5078353;28;20062;-77
2021/05/05 00:04:20;;;;;;;9.50;2.80;;;;;;;5.39;71.50;98590.00;5061175;28;20071;-76
2021/05/05 00:10:19;;;;;;;5.32;2.88;;;;;;;5.63;71.58;98587.31;5067969;27;20141;-76
2021/05/05 00:12:46;;;;;;;3.60;2.45;;;;;;;5.72;71.03;98592.44;5075208;28;20398;-76
2021/05/05 00:15:24;;;;;;;4.30;2.55;;;;;;;5.61;72.05;98585.59;5076414;28;20445;-79
2021/05/05 00:17:51;;;;;;;9.73;2.78;;;;;;;5.52;71.96;98586.50;5058518;28;20419;-78
2021/05/05 00:20:21;;;;;;;6.00;3.03;;;;;;;5.68;71.81;98589.88;5074656;28;20074;-78
2021/05/05 00:22:49;;;;;;;6.05;2.88;;;;;;;5.68;72.14;98582.09;5066762;28;20047;-77
2021/05/05 00:25:19;;;;;;;4.53;3.33;;;;;;;5.65;71.98;98592.50;5072082;28;20063;-77
2021/05/05 00:27:46;;;;;;;8.55;3.88;;;;;;;5.66;72.56;98584.69;5065359;28;20048;-77
2021/05/05 00:30:13;;;;;;;5.70;3.80;;;;;;;5.54;72.24;98587.34;5075818;28;20078;-77
2021/05/05 00:32:40;;;;;;;6.90;3.80;;;;;;;5.67;72.33;98593.31;5066899;28;20144;-77
2021/05/05 00:35:08;;;;;;;5.15;3.67;;;;;;;5.82;72.13;98597.56;5074762;28;20052;-77
2021/05/05 00:37:34;;;;;;;5.95;4.00;;;;;;;5.82;72.22;98588.06;5068863;28;20131;-76
2021/05/05 00:40:01;;;;;;;6.32;3.70;;;;;;;5.91;72.20;98589.75;5065524;28;20049;-76
2021/05/05 00:42:29;;;;;;;6.97;4.28;;;;;;;5.52;72.38;98586.50;5067502;28;20075;-76
2021/05/05 00:45:00;;;;;;;4.25;3.70;;;;;;;5.50;73.12;98584.78;5054896;28;20506;-75
2021/05/05 00:47:28;;;;;;;5.75;3.80;;;;;;;5.68;72.07;98593.31;5053625;28;20486;-77
2021/05/05 00:49:55;;;;;;;9.27;4.22;;;;;;;5.73;72.65;98590.72;5071591;28;20109;-76
2021/05/05 00:52:22;;;;;;;5.18;4.03;;;;;;;5.70;72.47;98591.59;5049609;28;20049;-77
2021/05/05 00:54:50;;;;;;;8.88;4.20;;;;;;;5.81;72.51;98599.28;5055637;28;20773;-76
2021/05/05 00:57:17;;;;;;;6.07;4.43;;;;;;;5.38;73.52;98590.00;5066371;28;20120;-76
2021/05/05 00:59:45;;;;;;;9.18;4.47;;;;;;;5.61;72.68;98588.19;5056727;28;20560;-76
2021/05/05 01:02:13;;;;;;;4.93;3.83;;;;;;;5.50;72.96;98592.56;5072703;28;20067;-76
2021/05/05 01:04:40;;;;;;;4.43;3.40;;;;;;;5.68;72.53;98589.88;5069619;28;20575;-77
2021/05/05 01:07:09;;;;;;;7.07;3.95;;;;;;;5.62;72.66;98601.13;5070014;28;20045;-76
2021/05/05 01:09:38;;;;;;;7.82;4.10;;;;;;;5.72;72.28;98601.94;5056152;28;20495;-76
2021/05/05 01:12:06;;;;;;;9.48;4.70;;;;;;;5.80;71.81;98597.59;5080934;28;20496;-77
2021/05/05 01:14:33;;;;;;;10.18;4.50;;;;;;;5.41;72.52;98595.19;5075767;28;20110;-77
2021/05/05 01:16:59;;;;;;;7.13;4.75;;;;;;;5.50;72.40;98601.19;5077505;28;20864;-76
2021/05/05 01:19:26;;;;;;;5.30;4.00;;;;;;;5.55;72.46;98604.63;5074373;28;20036;-78
2021/05/05 01:21:52;;;;;;;7.15;3.90;;;;;;;5.52;72.20;98603.75;5061244;28;20048;-76
2021/05/05 01:24:19;;;;;;;8.30;4.22;;;;;;;5.53;71.72;98602.91;5065138;28;21085;-76
2021/05/05 01:26:45;;;;;;;5.68;3.45;;;;;;;5.61;71.56;98603.75;5056950;28;20076;-77
2021/05/05 01:29:12;;;;;;;6.10;3.30;;;;;;;5.82;70.60;98602.75;5047831;28;20057;-77
2021/05/05 01:31:38;;;;;;;6.47;3.83;;;;;;;5.94;70.54;98605.31;5044363;28;20106;-77
2021/05/05 01:34:05;;;;;;;6.40;4.00;;;;;;;5.38;71.92;98608.13;5066227;28;20447;-77
2021/05/05 01:36:37;;;;;;;4.15;3.22;;;;;;;5.64;71.36;98607.16;5060768;28;20167;-76
2021/05/05 01:39:10;;;;;;;6.78;3.92;;;;;;;5.35;72.00;98602.97;5038572;28;20057;-77
2021/05/05 01:41:36;;;;;;;5.25;3.70;;;;;;;5.42;72.05;98615.88;5032250;28;20125;-76
2021/05/05 01:44:03;;;;;;;6.75;4.13;;;;;;;5.40;71.68;98612.47;5050943;28;20095;-76
2021/05/05 01:46:30;;;;;;;5.13;3.97;;;;;;;5.42;71.78;98609.88;5045705;28;20448;-76
2021/05/05 01:48:57;;;;;;;9.07;4.70;;;;;;;5.41;72.26;98618.50;5063247;28;20044;-77
2021/05/05 01:51:24;;;;;;;6.55;5.35;;;;;;;5.39;72.13;98618.50;5057271;28;20118;-77
2021/05/05 01:53:51;;;;;;;8.52;4.60;;;;;;;5.41;72.17;98616.78;5044460;28;20045;-77
2021/05/05 01:56:17;;;;;;;8.43;4.53;;;;;;;5.54;71.81;98610.66;5060158;28;20166;-76
2021/05/05 01:58:43;;;;;;;9.98;5.10;;;;;;;5.61;71.48;98619.28;5062148;28;20132;-77
2021/05/05 02:01:10;;;;;;;8.02;5.13;;;;;;;5.49;71.67;98614.16;5062562;28;20052;-77
2021/05/05 02:03:37;;;;;;;10.68;5.13;;;;;;;5.34;72.81;98620.25;5047346;28;20044;-76
2021/05/05 02:06:03;;;;;;;11.02;4.65;;;;;;;5.67;70.94;98621.81;5060779;28;20433;-77
2021/05/05 02:08:30;;;;;;;7.93;4.93;;;;;;;5.33;72.10;98615.94;5061986;28;20052;-77
2021/05/05 02:10:56;;;;;;;8.27;4.50;;;;;;;5.43;71.42;98621.94;5072736;28;20059;-77
2021/05/05 02:13:22;;;;;;;7.25;4.25;;;;;;;5.32;71.53;98618.53;5064567;28;20131;-77
2021/05/05 02:15:49;;;;;;;12.00;4.57;;;;;;;5.47;70.98;98615.88;5044520;28;20094;-77
2021/05/05 02:18:15;;;;;;;7.20;4.47;;;;;;;5.55;70.47;98617.59;5047935;28;20094;-77
2021/05/05 02:20:43;;;;;;;7.47;4.22;;;;;;;5.71;69.99;98626.13;5061595;28;20051;-76
2021/05/05 02:23:10;;;;;;;6.63;4.35;;;;;;;5.43;71.11;98620.22;5060559;28;20120;-77
2021/05/05 02:25:37;;;;;;;11.60;4.45;;;;;;;5.30;70.86;98625.44;5061471;28;20063;-77
2021/05/05 02:28:03;;;;;;;9.88;4.05;;;;;;;5.30;70.79;98625.44;5065011;28;20210;-77
2021/05/05 02:30:31;;;;;;;9.43;4.47;;;;;;;5.38;70.68;98619.38;5043224;28;20151;-76
2021/05/05 02:32:57;;;;;;;5.28;3.97;;;;;;;5.24;70.75;98611.66;5038523;28;20478;-77
2021/05/05 02:35:25;;;;;;;6.63;3.80;;;;;;;5.11;70.81;98620.34;5062289;28;20056;-77
2021/05/05 02:37:54;;;;;;;6.07;4.00;;;;;;;5.05;71.09;98620.34;5051004;28;20067;-76
2021/05/05 02:40:21;;;;;;;7.68;3.90;;;;;;;5.29;70.56;98624.59;5075496;28;20148;-76
2021/05/05 02:42:47;;;;;;;6.40;4.20;;;;;;;5.16;70.54;98622.91;5055560;28;20071;-76
2021/05/05 02:45:14;;;;;;;9.90;4.50;;;;;;;5.13;71.15;98626.34;5061246;28;20475;-78
2021/05/05 02:47:41;;;;;;;9.48;4.68;;;;;;;5.10;71.32;98631.56;5040865;28;20056;-76
2021/05/05 02:50:08;;;;;;;9.88;4.97;;;;;;;4.87;71.72;98630.75;5061665;28;20071;-76
2021/05/05 02:52:35;;;;;;;7.22;4.72;;;;;;;4.95;71.71;98634.16;5042734;28;20104;-76
2021/05/05 02:55:03;;;;;;;8.27;4.50;;;;;;;5.00;71.38;98627.25;5062852;28;20044;-76
2021/05/05 02:57:30;;;;;;;9.48;4.45;;;;;;;5.12;70.96;98632.41;5060769;28;20136;-77
2021/05/05 02:59:56;;;;;;;8.40;4.93;;;;;;;5.18;70.55;98636.72;5045397;28;20071;-76
2021/05/05 03:02:23;;;;;;;6.15;4.15;;;;;;;5.22;70.38;98638.44;5048179;28;20059;-77
2021/05/05 03:04:51;;;;;;;5.95;4.55;;;;;;;4.82;71.78;98635.06;5046581;28;20068;-76
2021/05/05 03:07:19;;;;;;;11.38;4.70;;;;;;;4.61;72.35;98635.94;5061460;28;20060;-76
2021/05/05 03:09:46;;;;;;;8.23;4.68;;;;;;;4.80;71.48;98640.22;5062719;28;20044;-77
2021/05/05 03:12:12;;;;;;;8.38;4.40;;;;;;;4.99;71.08;98640.22;5047443;28;20094;-77
2021/05/05 03:14:39;;;;;;;11.20;3.92;;;;;;;4.97;70.98;98650.56;5061910;28;20049;-77
2021/05/05 03:17:05;;;;;;;7.97;3.65;;;;;;;4.76;70.87;98654.03;5064456;28;20061;-77
2021/05/05 03:19:32;;;;;;;7.53;3.35;;;;;;;4.97;70.43;98660.06;5063480;28;20060;-77
2021/05/05 03:22:00;;;;;;;6.72;3.40;;;;;;;4.92;69.83;98654.03;5047228;28;20041;-77
2021/05/05 03:24:26;;;;;;;6.63;3.17;;;;;;;5.11;69.18;98656.56;5056251;28;20041;-77
2021/05/05 03:26:53;;;;;;;5.93;3.17;;;;;;;5.13;68.66;98654.81;5046085;28;20045;-78
2021/05/05 03:29:19;;;;;;;7.63;3.67;;;;;;;5.17;68.29;98653.13;5059175;28;20075;-77
2021/05/05 03:31:46;;;;;;;10.90;3.42;;;;;;;4.76;69.38;98660.94;5060548;28;20135;-76
2021/05/05 03:34:12;;;;;;;9.88;3.88;;;;;;;4.89;69.47;98654.03;5040756;28;20495;-76
2021/05/05 03:36:39;;;;;;;10.70;3.38;;;;;;;4.90;69.49;98651.44;5063137;28;20523;-77
2021/05/05 03:39:08;;;;;;;6.82;3.10;;;;;;;4.70;69.81;98661.81;5066221;28;20040;-77
2021/05/05 03:41:35;;;;;;;9.65;3.47;;;;;;;4.87;69.57;98654.03;5057176;28;20110;-76
2021/05/05 03:44:01;;;;;;;7.65;2.85;;;;;;;4.90;68.63;98663.50;5044178;28;20048;-76
2021/05/05 03:46:28;;;;;;;7.45;3.10;;;;;;;4.93;69.50;98666.09;5057148;28;20533;-76
2021/05/05 03:48:55;;;;;;;7.82;3.03;;;;;;;5.00;68.75;98657.44;5065319;28;20390;-77
2021/05/05 03:51:21;;;;;;;9.13;3.70;;;;;;;4.79;69.58;98674.75;5049609;28;20476;-77
2021/05/05 03:53:48;;;;;;;5.47;3.30;;;;;;;5.00;68.72;98675.56;5063280;28;20041;-77
2021/05/05 03:56:14;;;;;;;7.00;3.00;;;;;;;4.72;69.83;98673.03;5064050;28;20048;-77
2021/05/05 03:58:41;;;;;;;5.43;2.75;;;;;;;4.55;70.10;98671.31;5057432;28;20041;-76
2021/05/05 04:01:07;;;;;;;9.70;3.33;;;;;;;4.76;69.53;98664.38;5045390;28;20457;-78
2021/05/05 04:03:34;;;;;;;8.95;3.50;;;;;;;5.18;68.30;98666.03;5041256;28;20402;-76
2021/05/05 04:06:00;;;;;;;8.73;3.42;;;;;;;4.93;69.05;98679.03;5058433;28;20052;-76
2021/05/05 04:08:27;;;;;;;9.35;2.83;;;;;;;4.63;69.84;98674.75;5061654;28;20128;-77
2021/05/05 04:10:54;;;;;;;7.47;2.92;;;;;;;4.87;69.24;98676.47;5055925;28;20136;-77
2021/05/05 04:13:21;;;;;;;6.85;3.45;;;;;;;4.81;68.74;98673.00;5045725;28;20044;-76
2021/05/05 04:16:05;;;;;;;9.52;3.38;;;;;;;4.66;69.20;98661.81;5059667;28;20517;-77
2021/05/05 04:18:50;;;;;;;10.90;3.67;;;;;;;4.92;68.53;98674.72;5057199;28;20038;-76
2021/05/05 04:21:35;;;;;;;11.73;3.78;;;;;;;4.70;69.66;98676.47;5036646;28;20482;-77
2021/05/05 04:24:19;;;;;;;10.00;3.95;;;;;;;4.88;69.57;98689.41;5066048;28;20340;-77
2021/05/05 04:26:48;;;;;;;9.68;4.80;;;;;;;4.56;69.97;98691.13;5057874;28;20048;-78
2021/05/05 04:29:15;;;;;;;11.18;4.13;;;;;;;4.57;70.36;98691.13;5044712;28;20475;-76
2021/05/05 04:31:41;;;;;;;10.73;3.83;;;;;;;4.33;70.04;98693.69;5061617;28;20494;-77
2021/05/05 04:34:09;;;;;;;10.40;4.72;;;;;;;4.68;69.67;98699.75;5063577;28;20053;-79
2021/05/05 04:36:35;;;;;;;12.25;3.83;;;;;;;5.05;68.28;98698.00;5040469;28;20046;-78
2021/05/05 04:39:03;;;;;;;7.65;3.75;;;;;;;4.42;69.31;98703.16;5065568;28;20465;-76
2021/05/05 04:41:30;;;;;;;9.52;4.25;;;;;;;4.53;69.58;98714.41;5062377;28;20102;-76
2021/05/05 04:43:56;;;;;;;6.80;3.42;;;;;;;4.44;69.87;98709.22;5049373;28;20051;-77
2021/05/05 04:46:23;;;;;;;6.75;3.10;;;;;;;4.27;70.15;98711.75;5046048;28;20057;-76
2021/05/05 04:48:49;;;;;;;6.50;2.70;;;;;;;4.64;69.00;98720.44;5058440;28;20072;-77
2021/05/05 04:51:16;;;;;;;6.18;2.45;;;;;;;4.62;68.54;98730.78;5061784;28;20049;-77
2021/05/05 04:53:44;;;;;;;9.18;2.95;;;;;;;5.05;67.20;98729.06;5044828;28;20045;-76
2021/05/05 04:56:10;;;;;;;8.20;2.63;;;;;;;4.82;67.58;98730.81;5066725;28;20148;-77
2021/05/05 04:58:37;;;;;;;7.03;2.28;;;;;;;4.80;67.30;98729.94;5066879;28;20088;-76
2021/05/05 05:01:04;;;;;;;7.28;2.33;;;;;;;4.91;66.98;98733.38;5052869;28;20053;-77
2021/05/05 05:03:31;;;;;;;5.57;2.17;;;;;;;5.26;66.04;98730.75;5065616;28;20064;-76
2021/05/05 05:05:58;;;;;;;10.50;2.10;;;;;;;5.06;66.89;98735.97;5051373;28;20546;-76
2021/05/05 05:08:25;;;;;;;5.75;2.05;;;;;;;5.84;65.02;98738.38;5066221;28;20070;-78
2021/05/05 05:10:53;;;;;;;8.05;1.90;;;;;;;7.03;61.85;98739.38;5064457;28;20132;-76
2021/05/05 05:13:20;;;;;;;7.82;1.80;;;;;;;7.99;57.90;98739.25;5067655;28;20414;-77
2021/05/05 05:15:46;;;;;;;10.75;2.10;;;;;;;8.91;54.19;98734.47;5065026;28;20040;-77
2021/05/05 05:18:13;;;;;;;5.95;1.55;;;;;;;9.37;53.06;98733.69;5062020;28;20059;-77
2021/05/05 05:20:40;;;;;;;6.60;1.70;;;;;;;9.34;52.00;98746.78;5065064;28;20064;-77
2021/05/05 05:23:08;;;;;;;6.20;1.90;;;;;;;11.01;48.77;98751.97;5069601;28;20076;-76
2021/05/05 05:25:35;;;;;;;4.90;1.70;;;;;;;12.33;45.40;98750.19;5063850;28;20079;-78
2021/05/05 05:28:03;;;;;;;6.15;1.52;;;;;;;12.61;44.29;98761.56;5049098;28;20068;-76
2021/05/05 05:30:30;;;;;;;4.15;1.55;;;;;;;13.67;41.32;98763.34;5065293;28;20044;-77
2021/05/05 05:32:56;;;;;;;4.05;1.50;;;;;;;14.24;41.14;98772.69;5066615;28;20060;-77
2021/05/05 05:35:24;;;;;;;6.47;1.52;;;;;;;15.72;36.38;98771.19;5061568;28;20072;-77
2021/05/05 05:37:51;;;;;;;3.17;1.20;;;;;;;16.59;34.67;98772.59;5061547;28;20049;-77
2021/05/05 05:40:17;;;;;;;3.35;1.33;;;;;;;16.74;34.61;98769.25;5056910;28;20040;-77
2021/05/05 05:42:45;;;;;;;5.35;1.20;;;;;;;15.58;36.83;98777.03;5060600;28;20410;-78
2021/05/05 05:45:12;;;;;;;4.97;1.52;;;;;;;14.97;38.52;98778.63;5049597;28;20052;-77
2021/05/05 05:47:39;;;;;;;6.57;1.38;;;;;;;16.47;36.20;98779.25;5066729;28;20514;-78
2021/05/05 05:50:07;;;;;;;7.07;1.38;;;;;;;16.55;34.63;98782.38;5052221;28;20063;-77
2021/05/05 05:52:34;;;;;;;5.63;1.42;;;;;;;15.39;36.87;98781.34;5045146;28;20041;-77
2021/05/05 05:55:04;;;;;;;4.55;1.40;;;;;;;16.01;36.49;98781.31;5057718;28;20699;-77
2021/05/05 05:57:30;;;;;;;3.90;1.48;;;;;;;15.45;37.58;98781.06;5045854;28;20102;-77
2021/05/05 05:59:57;;;;;;;8.13;1.55;;;;;;;16.17;35.43;98786.75;5046362;28;20052;-78
2021/05/05 06:02:26;;;;;;;4.40;1.30;;;;;;;16.63;35.39;98788.22;5067838;28;20125;-79
2021/05/05 06:04:53;;;;;;;4.55;1.40;;;;;;;16.05;36.54;98784.66;5065923;28;20469;-77
2021/05/05 06:07:19;;;;;;;3.58;1.70;;;;;;;16.40;36.38;98783.94;5065619;28;20052;-78
2021/05/05 06:09:45;;;;;;;6.68;1.58;;;;;;;17.44;33.06;98793.09;5064121;28;20067;-76
2021/05/05 06:12:12;;;;;;;8.20;1.63;;;;;;;16.62;35.14;98796.19;5066815;28;20055;-76
2021/05/05 06:14:39;;;;;;;7.57;1.60;;;;;;;17.51;33.50;98802.41;5068809;28;20134;-78
2021/05/05 06:17:06;;;;;;;6.78;1.90;;;;;;;18.08;32.42;98811.00;5066454;28;20412;-78
2021/05/05 06:19:32;;;;;;;4.57;1.13;;;;;;;18.71;31.32;98812.88;5064909;28;20049;-78
2021/05/05 06:21:59;;;;;;;4.85;1.63;;;;;;;18.15;31.45;98807.94;5063913;28;20134;-78
2021/05/05 06:24:26;;;;;;;5.95;1.38;;;;;;;17.08;34.59;98808.91;5049527;28;20059;-78
2021/05/05 06:26:52;;;;;;;5.80;1.40;;;;;;;19.14;29.01;98816.66;5046011;28;20558;-79
2021/05/05 06:29:19;;;;;;;7.10;1.70;;;;;;;17.61;30.91;98803.69;5069370;28;20139;-77
2021/05/05 06:31:46;;;;;;;6.60;1.80;;;;;;;18.06;31.52;98810.22;5043252;28;20102;-79
2021/05/05 06:34:12;;;;;;;4.93;1.40;;;;;;;18.36;31.87;98799.81;5060887;28;20052;-79
2021/05/05 06:36:39;;;;;;;4.80;1.55;;;;;;;18.65;30.24;98815.88;5050181;28;20135;-79
2021/05/05 06:39:08;;;;;;;7.70;1.20;;;;;;;19.11;28.94;98814.19;5044421;28;20458;-78
2021/05/05 06:41:35;;;;;;;6.93;1.45;;;;;;;19.46;29.46;98808.75;5045356;28;20471;-78
2021/05/05 06:44:03;;;;;;;7.00;1.50;;;;;;;19.17;28.73;98811.22;5048101;28;20056;-79
2021/05/05 06:46:30;;;;;;;6.63;1.52;;;;;;;19.37;28.02;98809.22;5044047;28;20048;-80
2021/05/05 06:48:58;;;;;;;5.75;1.33;;;;;;;19.27;27.32;98816.00;5040923;28;20150;-79
2021/05/05 06:51:25;;;;;;;9.30;1.70;;;;;;;20.31;26.91;98827.53;5044726;28;20139;-79
2021/05/05 06:53:52;;;;;;;5.30;1.73;;;;;;;19.00;28.74;98827.16;5063140;28;20052;-80
2021/05/05 06:56:19;;;;;;;8.40;1.80;;;;;;;20.59;26.42;98829.34;5046144;28;20052;-80
2021/05/05 06:58:47;;;;;;;7.15;1.48;;;;;;;20.12;26.43;98830.44;5066853;28;20060;-80
2021/05/05 07:01:13;;;;;;;6.05;1.55;;;;;;;19.79;26.93;98838.59;5064209;28;20045;-80
2021/05/05 07:03:44;;;;;;;7.97;1.67;;;;;;;22.10;23.97;98842.56;5063532;28;20063;-80
2021/05/05 07:06:11;;;;;;;4.35;1.80;;;;;;;21.61;24.44;98847.59;5066975;28;20048;-80
2021/05/05 07:08:39;;;;;;;5.03;1.23;;;;;;;23.24;21.83;98851.38;5037814;28;20052;-80
2021/05/05 07:11:06;;;;;;;9.25;1.45;;;;;;;23.21;21.45;98859.59;5067363;28;20071;-81
2021/05/05 07:13:36;;;;;;;4.53;1.48;;;;;;;23.74;20.75;98846.84;5058251;28;20047;-81
2021/05/05 07:16:03;;;;;;;8.55;2.00;;;;;;;24.26;20.41;98849.13;5045628;28;20048;-81
2021/05/05 07:18:30;;;;;;;5.65;1.38;;;;;;;25.48;18.86;98864.31;5046638;28;20040;-81
2021/05/05 07:20:58;;;;;;;4.32;1.40;;;;;;;26.89;17.95;98871.16;5050634;28;20067;-81
2021/05/05 07:23:28;;;;;;;8.57;1.50;;;;;;;25.89;17.81;98861.81;5063484;28;20197;-80
2021/05/05 07:25:54;;;;;;;9.13;1.48;;;;;;;24.77;18.59;98861.09;5046253;28;20394;-80
2021/05/05 07:28:21;;;;;;;6.90;1.73;;;;;;;24.53;18.93;98859.47;5044408;28;20654;-77
2021/05/05 07:30:47;;;;;;;4.35;1.45;;;;;;;26.51;17.67;98877.09;5028624;28;20434;-81
2021/05/05 07:33:15;;;;;;;4.20;1.45;;;;;;;26.81;16.65;98877.13;5051627;28;20048;-79
2021/05/05 07:35:52;;;;;;;3.63;1.27;;;;;;;25.42;18.04;98876.38;5040327;28;20064;-80
2021/05/05 07:46:20;;;;;;;7.55;1.88;;;;;;;27.13;16.30;98881.53;5061230;28;20495;-80
2021/05/05 07:48:52;;;;;;;3.58;1.08;;;;;;;28.01;15.83;98879.78;5053215;28;20517;-84
2021/05/05 07:51:21;;;;;;;9.48;1.27;;;;;;;28.89;14.82;98881.41;5058270;28;20517;-78
2021/05/05 07:53:48;;;;;;;7.80;1.55;;;;;;;29.27;14.69;98883.94;5046009;28;20024;-81
2021/05/05 07:56:15;;;;;;;7.90;1.70;;;;;;;27.94;15.01;98880.47;5042164;28;20068;-78
2021/05/05 07:58:42;;;;;;;5.22;1.60;;;;;;;26.12;17.22;98891.16;5042819;28;20047;-82
2021/05/05 08:01:09;;;;;;;8.63;1.73;;;;;;;24.88;19.84;98880.78;5062625;28;20040;-82
2021/05/05 08:03:37;;;;;;;8.25;1.90;;;;;;;25.82;17.76;98882.03;5046167;28;20045;-77
2021/05/05 08:06:05;;;;;;;6.75;1.65;;;;;;;25.99;17.25;98881.47;5041022;28;20048;-78
2021/05/05 08:08:32;;;;;;;6.05;1.42;;;;;;;26.33;18.40;98881.34;5039596;28;20088;-76
2021/05/05 08:10:59;;;;;;;4.90;1.70;;;;;;;27.85;16.65;98887.56;5061274;28;20048;-76
2021/05/05 08:13:29;;;;;;;4.25;1.67;;;;;;;28.14;15.34;98887.59;5046171;28;20571;-76
2021/05/05 08:15:56;;;;;;;5.05;1.27;;;;;;;27.57;15.38;98893.72;5063687;28;20388;-80
2021/05/05 08:18:25;;;;;;;6.38;1.85;;;;;;;29.21;14.69;98891.78;5046710;28;20075;-80
2021/05/05 08:20:52;;;;;;;7.68;1.70;;;;;;;29.93;14.24;98885.59;5078134;28;20098;-80
2021/05/05 08:23:20;;;;;;;5.80;1.73;;;;;;;28.17;15.30;98890.84;5059215;28;20132;-80
2021/05/05 08:25:48;;;;;;;7.07;1.92;;;;;;;29.45;14.89;98894.78;5058703;28;20110;-78
2021/05/05 08:28:15;;;;;;;5.43;1.40;;;;;;;30.25;13.48;98900.22;5049752;28;20037;-78
2021/05/05 08:30:42;;;;;;;7.35;1.65;;;;;;;29.72;14.43;98896.63;5065536;28;20048;-79
2021/05/05 08:33:09;;;;;;;4.45;1.50;;;;;;;28.75;15.08;98898.84;5067577;28;20044;-79
2021/05/05 08:35:35;;;;;;;6.03;1.63;;;;;;;29.13;14.58;98902.41;5070792;28;20048;-79
2021/05/05 08:38:03;;;;;;;6.13;2.08;;;;;;;27.02;16.09;98889.66;5069010;28;20066;-79
2021/05/05 08:40:32;;;;;;;4.20;1.42;;;;;;;27.24;16.12;98902.91;5031995;28;20514;-81
2021/05/05 08:43:00;;;;;;;9.73;2.15;;;;;;;25.54;17.47;98871.84;5028725;28;20533;-78
2021/05/05 08:45:30;;;;;;;5.82;1.50;;;;;;;25.03;17.30;98883.13;5010829;28;20546;-81
2021/05/05 08:48:09;;;;;;;5.78;1.55;;;;;;;24.75;17.09;98887.06;5022076;28;20132;-84
2021/05/05 08:50:39;;;;;;;8.50;1.80;;;;;;;25.91;16.01;98883.06;5019907;28;20047;-83
2021/05/05 08:53:07;;;;;;;5.00;1.67;;;;;;;25.14;16.70;98883.09;5014150;28;20099;-83
2021/05/05 08:55:36;;;;;;;6.32;1.30;;;;;;;25.05;16.51;98883.81;5014851;28;20049;-77
2021/05/05 08:58:03;;;;;;;6.15;1.33;;;;;;;23.54;18.54;98890.97;5032763;28;20049;-76
2021/05/05 09:00:32;;;;;;;9.15;1.77;;;;;;;25.35;16.43;98883.19;5018570;28;20041;-76
2021/05/05 09:02:59;;;;;;;6.63;1.35;;;;;;;25.74;16.46;98886.31;5024942;28;20083;-76
2021/05/05 09:05:54;;;;;;;8.07;1.75;;;;;;;25.78;15.97;98893.09;5047327;28;20077;-79
2021/05/05 09:08:22;;;;;;;5.90;1.67;;;;;;;26.91;16.07;98892.47;5028488;28;20132;-76
2021/05/05 09:11:02;;;;;;;2.65;1.30;;;;;;;27.10;15.90;98889.88;5038602;28;20196;-76
2021/05/05 09:13:53;;;;;;;3.85;1.50;;;;;;;26.51;15.59;98890.50;5053075;28;20437;-76
2021/05/05 09:16:32;;;;;;;6.25;1.73;;;;;;;26.38;15.18;98897.84;5037048;28;20058;-77
2021/05/05 09:19:28;;;;;;;3.22;1.25;;;;;;;25.49;16.88;98900.81;5019991;28;20040;-76
2021/05/05 09:22:05;;;;;;;5.45;1.88;;;;;;;25.67;16.54;98906.50;5038800;28;20505;-76
2021/05/05 09:32:28;;;;;;;7.35;1.25;;;;;;;24.60;17.25;98914.13;4970942;28;20045;-78
2021/05/05 09:35:34;;;;;;;4.00;1.20;;;;;;;25.46;17.65;98923.31;5033228;28;20047;-80
2021/05/05 09:41:35;;;;;;;9.15;1.25;;;;;;;26.03;17.04;98925.75;4951022;28;20400;-78
2021/05/05 09:44:06;;;;;;;4.53;1.08;;;;;;;25.24;16.46;98917.97;5018104;28;20469;-78
2021/05/05 09:46:51;;;;;;;3.80;1.15;;;;;;;24.99;17.55;98934.22;5063142;28;20056;-79
2021/05/05 09:49:38;;;;;;;6.72;1.23;;;;;;;24.63;16.72;98929.91;5018590;28;20103;-78
2021/05/05 09:52:19;;;;;;;3.88;1.10;;;;;;;24.72;17.16;98923.84;5032356;28;20117;-82
2021/05/05 09:55:02;;;;;;;2.70;0.82;;;;;;;25.07;15.70;98954.06;5054696;28;20066;-81
2021/05/05 09:57:31;;;;;;;6.13;1.20;;;;;;;27.12;14.39;98946.88;5065067;28;20044;-79
2021/05/05 10:00:05;;;;;;;5.85;1.20;;;;;;;26.51;15.54;98945.91;5060187;28;21121;-80
2021/05/05 10:02:44;;;;;;;9.38;1.25;;;;;;;28.60;14.11;98945.97;5060599;28;20107;-79
2021/05/05 10:05:15;;;;;;;3.88;1.35;;;;;;;27.32;16.13;98948.69;5049302;28;20052;-77
2021/05/05 10:07:58;;;;;;;2.77;1.20;;;;;;;24.51;16.99;98938.88;5027237;28;20473;-79
2021/05/05 10:10:30;;;;;;;5.40;1.50;;;;;;;23.65;18.53;98943.50;5040912;28;20562;-79
2021/05/05 10:13:03;;;;;;;4.90;1.58;;;;;;;23.14;18.98;98953.38;5068385;28;20102;-78
2021/05/05 10:15:31;;;;;;;8.77;1.80;;;;;;;25.51;17.52;98947.00;5043422;28;20072;-80
2021/05/05 10:17:59;;;;;;;2.22;0.88;;;;;;;26.18;15.80;98949.56;5052868;28;20508;-77
2021/05/05 10:20:29;;;;;;;5.20;1.10;;;;;;;24.40;16.48;98952.19;5064529;28;20428;-81
2021/05/05 10:22:58;;;;;;;3.88;1.20;;;;;;;21.95;18.58;98950.84;5066113;28;20122;-79
2021/05/05 10:25:27;;;;;;;3.97;1.13;;;;;;;19.69;20.82;98947.84;5053240;28;20041;-82
2021/05/05 10:27:55;;;;;;;2.97;1.33;;;;;;;19.68;21.65;98947.00;5065160;28;20647;-80
2021/05/05 10:30:27;;;;;;;3.22;0.82;;;;;;;19.07;21.91;98945.03;5034532;28;20071;-78
2021/05/05 10:33:25;;;;;;;3.63;0.73;;;;;;;19.08;22.63;98946.75;5051510;28;20045;-80
2021/05/05 10:35:51;;;;;;;4.68;1.42;;;;;;;20.43;21.58;98947.03;5049207;28;20072;-80
2021/05/05 10:38:36;;;;;;;6.22;1.63;;;;;;;22.64;18.66;98948.91;5062743;28;20052;-79
2021/05/05 10:41:13;;;;;;;4.50;0.90;;;;;;;24.38;17.87;98954.09;5060480;28;20071;-81
2021/05/05 10:44:07;;;;;;;4.47;1.42;;;;;;;20.43;20.63;98944.38;5047165;28;20132;-80
2021/05/05 10:46:38;;;;;;;2.00;0.88;;;;;;;19.32;22.56;98952.53;5057297;28;20139;-82
2021/05/05 10:49:12;;;;;;;5.47;1.25;;;;;;;21.97;21.18;98958.69;5062768;28;20096;-81
2021/05/05 10:51:45;;;;;;;7.63;1.67;;;;;;;22.18;20.31;98955.50;5043180;28;20411;-78
2021/05/05 10:54:14;;;;;;;3.75;1.10;;;;;;;21.77;19.54;98964.44;5046062;28;20076;-81
2021/05/05 10:56:44;;;;;;;4.75;1.20;;;;;;;21.91;20.30;98965.25;5061526;28;20064;-79
2021/05/05 10:59:12;;;;;;;2.38;1.08;;;;;;;24.57;16.07;98962.41;5063630;28;20102;-77
2021/05/05 11:01:47;;;;;;;2.92;1.17;;;;;;;26.17;15.54;98963.91;5043668;28;20074;-81
2021/05/05 11:04:15;;;;;;;3.40;1.08;;;;;;;24.39;16.15;98958.47;5059892;28;20056;-76
2021/05/05 11:06:49;;;;;;;2.90;1.00;;;;;;;24.26;16.73;98959.41;5044979;28;20102;-77
2021/05/05 11:09:17;;;;;;;5.65;1.25;;;;;;;27.02;15.07;98976.31;5060942;28;20048;-79
2021/05/05 11:11:44;;;;;;;10.15;1.48;;;;;;;25.79;15.46;98959.03;5041920;28;20459;-80
2021/05/05 11:14:23;;;;;;;3.15;1.05;;;;;;;24.37;17.54;98966.59;5047872;28;20048;-80
2021/05/05 11:16:54;;;;;;;2.20;0.95;;;;;;;22.05;18.58;98964.38;5045143;28;20040;-78
2021/05/05 11:19:41;;;;;;;4.55;1.30;;;;;;;20.58;20.29;98955.03;5060915;28;20052;-80
2021/05/05 11:22:23;;;;;;;6.75;1.05;;;;;;;18.70;23.81;98964.63;5045846;28;20052;-80
2021/05/05 11:24:51;;;;;;;2.63;0.95;;;;;;;19.71;22.00;98951.28;5059718;28;20517;-79
2021/05/05 11:27:38;;;;;;;5.25;1.35;;;;;;;19.25;22.27;98956.44;5046888;28;20064;-79
2021/05/05 11:30:29;;;;;;;6.28;0.98;;;;;;;21.65;20.20;98966.94;5059728;28;20070;-80
2021/05/05 11:32:57;;;;;;;6.43;1.20;;;;;;;22.72;18.04;98950.09;5045636;28;20579;-80
2021/05/05 11:35:29;;;;;;;3.55;1.05;;;;;;;21.82;19.81;98962.34;5047279;28;20033;-79
2021/05/05 11:38:08;;;;;;;4.03;1.20;;;;;;;21.54;21.37;98958.78;5061958;28;20123;-80
2021/05/05 11:40:34;;;;;;;5.88;1.25;;;;;;;22.79;18.38;98958.50;5040441;28;20063;-80
2021/05/05 11:43:16;;;;;;;5.20;1.15;;;;;;;20.92;19.32;98951.19;5046922;28;20048;-79
2021/05/05 11:45:52;;;;;;;3.50;1.08;;;;;;;18.35;23.02;98946.19;5062456;28;20062;-79
2021/05/05 11:48:30;;;;;;;1.73;0.70;;;;;;;17.40;23.63;98942.91;5051299;28;20122;-79
2021/05/05 11:50:58;;;;;;;4.80;1.15;;;;;;;17.89;23.91;98947.66;5058565;28;20067;-79
2021/05/05 11:53:30;;;;;;;4.68;1.42;;;;;;;21.24;20.07;98948.31;5061802;28;20102;-80
2021/05/05 11:55:58;;;;;;;5.43;1.10;;;;;;;21.73;18.92;98948.69;5061783;28;20422;-79
2021/05/05 11:58:25;;;;;;;3.05;0.95;;;;;;;23.21;17.36;98942.22;5048596;28;20051;-80
2021/05/05 12:00:54;;;;;;;3.20;1.02;;;;;;;23.85;17.44;98946.44;5046748;28;20048;-80
2021/05/05 12:03:25;;;;;;;3.40;0.82;;;;;;;24.48;17.09;98950.63;5064652;28;20059;-79
2021/05/05 12:05:55;;;;;;;2.35;0.90;;;;;;;24.09;15.12;98949.09;5046351;28;20067;-79
2021/05/05 12:08:27;;;;;;;2.65;0.80;;;;;;;22.76;16.47;98942.75;5063081;28;20056;-79
2021/05/05 12:11:02;;;;;;;4.60;1.08;;;;;;;21.04;18.79;98939.84;5047243;28;20102;-80